| time (UTC) | temp C | wind direction | speed KPH | gust KPH | rain 1hr cm | rain 24hr cm | rain mn cm | humidity % | barometer mb |
| 20260510190658 | 28 | 316 | 1.6 | 4.8 | 0.00 | 0.03 | 0.03 | 77 | 1016.7 |
| 20260510190155 | 28 | 159 | 4.8 | 12.9 | 0.00 | 0.03 | 0.03 | 75 | 1016.8 |
| 20260510185652 | 29 | 203 | 4.8 | 8.0 | 0.00 | 0.03 | 0.03 | 75 | 1016.7 |
| 20260510185150 | 28 | 290 | 0.0 | 4.8 | 0.00 | 0.03 | 0.03 | 78 | 1016.9 |
| 20260510184646 | 28 | 323 | 4.8 | 8.0 | 0.00 | 0.03 | 0.03 | 75 | 1017.1 |
| 20260510184142 | 30 | 191 | 8.0 | 12.9 | 0.00 | 0.03 | 0.03 | 72 | 1016.9 |
| 20260510183638 | 28 | 13 | 1.6 | 3.2 | 0.00 | 0.03 | 0.03 | 70 | 1017.2 |
| 20260510183133 | 28 | 167 | 4.8 | 4.8 | 0.00 | 0.03 | 0.03 | 71 | 1017.3 |
| 20260510182630 | 28 | 321 | 4.8 | 4.8 | 0.00 | 0.03 | 0.03 | 71 | 1017.2 |
| 20260510182126 | 29 | 339 | 0.0 | 3.2 | 0.00 | 0.03 | 0.03 | 70 | 1017.4 |
| 20260510181623 | 29 | 285 | 0.0 | 1.6 | 0.00 | 0.03 | 0.03 | 69 | 1017.3 |
| 20260510181119 | 29 | 0 | 1.6 | 4.8 | 0.00 | 0.03 | 0.03 | 67 | 1017.6 |
| 20260510180615 | 28 | 347 | 0.0 | 3.2 | 0.00 | 0.03 | 0.03 | 73 | 1017.6 |
| 20260510180114 | 28 | 335 | 1.6 | 3.2 | 0.00 | 0.03 | 0.03 | 73 | 1017.7 |
| 20260510175609 | 27 | 343 | 1.6 | 3.2 | 0.00 | 0.03 | 0.03 | 75 | 1017.5 |
| 20260510175105 | 27 | 347 | 0.0 | 3.2 | 0.00 | 0.03 | 0.03 | 75 | 1017.6 |
| 20260510174603 | 27 | 343 | 3.2 | 3.2 | 0.00 | 0.03 | 0.03 | 73 | 1017.7 |
| 20260510174100 | 27 | 340 | 0.0 | 3.2 | 0.00 | 0.03 | 0.03 | 73 | 1017.5 |
| 20260510173555 | 27 | 315 | 3.2 | 4.8 | 0.00 | 0.03 | 0.03 | 72 | 1017.7 |
| 20260510173052 | 28 | 343 | 0.0 | 3.2 | 0.00 | 0.03 | 0.03 | 73 | 1017.7 |
| 20260510172548 | 28 | 351 | 0.0 | 1.6 | 0.00 | 0.03 | 0.03 | 73 | 1017.7 |
| 20260510172044 | 28 | 353 | 0.0 | 8.0 | 0.00 | 0.03 | 0.03 | 72 | 1017.8 |
| 20260510171541 | 28 | 351 | 1.6 | 4.8 | 0.00 | 0.03 | 0.03 | 73 | 1017.9 |
| 20260510171038 | 28 | 328 | 0.0 | 3.2 | 0.00 | 0.03 | 0.03 | 72 | 1018.0 |
| 20260510170534 | 28 | 81 | 1.6 | 3.2 | 0.00 | 0.03 | 0.03 | 71 | 1017.9 |
| 20260510170031 | 27 | 354 | 1.6 | 8.0 | 0.00 | 0.03 | 0.03 | 76 | 1017.7 |
| 20260510165527 | 27 | 353 | 1.6 | 3.2 | 0.00 | 0.03 | 0.03 | 73 | 1018.1 |
| 20260510165023 | 27 | 343 | 0.0 | 3.2 | 0.00 | 0.03 | 0.03 | 75 | 1018.0 |
| 20260510164521 | 27 | 359 | 1.6 | 8.0 | 0.00 | 0.03 | 0.03 | 73 | 1017.9 |
| 20260510164017 | 27 | 326 | 3.2 | 3.2 | 0.00 | 0.03 | 0.03 | 75 | 1017.9 |
| 20260510163512 | 26 | 95 | 3.2 | 3.2 | 0.00 | 0.03 | 0.03 | 75 | 1017.9 |
| 20260510163009 | 26 | 53 | 1.6 | 8.0 | 0.00 | 0.03 | 0.03 | 79 | 1017.8 |
| 20260510162504 | 26 | 99 | 4.8 | 9.7 | 0.00 | 0.03 | 0.03 | 75 | 1017.9 |
| 20260510162001 | 27 | 119 | 4.8 | 9.7 | 0.00 | 0.03 | 0.03 | 73 | 1018.0 |
| 20260510161456 | 26 | 353 | 0.0 | 3.2 | 0.00 | 0.03 | 0.03 | 78 | 1017.9 |
| 20260510160953 | 27 | 28 | 3.2 | 4.8 | 0.00 | 0.03 | 0.03 | 75 | 1018.1 |
| 20260510160445 | 26 | 342 | 1.6 | 1.6 | 0.00 | 0.03 | 0.03 | 77 | 1018.0 |
| 20260510155943 | 26 | 356 | 0.0 | 3.2 | 0.00 | 0.03 | 0.03 | 79 | 1017.9 |
| 20260510155441 | 26 | 10 | 0.0 | 3.2 | 0.00 | 0.03 | 0.03 | 81 | 1017.7 |
| 20260510154937 | 25 | 356 | 0.0 | 3.2 | 0.00 | 0.03 | 0.03 | 82 | 1017.9 |
| 20260510154433 | 25 | 65 | 1.6 | 8.0 | 0.00 | 0.03 | 0.03 | 84 | 1017.9 |
| 20260510153931 | 25 | 11 | 0.0 | 4.8 | 0.00 | 0.03 | 0.03 | 85 | 1017.8 |
| 20260510153429 | 25 | 15 | 1.6 | 8.0 | 0.00 | 0.03 | 0.03 | 85 | 1017.8 |
| 20260510152925 | 25 | 115 | 6.4 | 9.7 | 0.00 | 0.03 | 0.03 | 85 | 1017.8 |
| 20260510152423 | 25 | 67 | 4.8 | 8.0 | 0.00 | 0.03 | 0.03 | 85 | 1017.9 |
| 20260510151919 | 25 | 92 | 4.8 | 4.8 | 0.00 | 0.03 | 0.03 | 85 | 1017.9 |
| 20260510151417 | 25 | 13 | 0.0 | 4.8 | 0.00 | 0.03 | 0.03 | 87 | 1017.9 |
| 20260510150912 | 25 | 78 | 3.2 | 8.0 | 0.00 | 0.03 | 0.03 | 88 | 1018.0 |
| 20260510150408 | 25 | 36 | 1.6 | 1.6 | 0.00 | 0.03 | 0.03 | 92 | 1017.7 |
| 20260510145905 | 25 | 25 | 3.2 | 4.8 | 0.00 | 0.03 | 0.03 | 89 | 1018.0 |
| 20260510145401 | 24 | 99 | 4.8 | 9.7 | 0.00 | 0.03 | 0.03 | 89 | 1018.1 |
| 20260510144857 | 24 | 23 | 1.6 | 1.6 | 0.00 | 0.03 | 0.03 | 93 | 1018.1 |
| 20260510144354 | 25 | 84 | 1.6 | 3.2 | 0.00 | 0.03 | 0.03 | 99 | 1017.9 |
| 20260510143849 | 23 | 351 | 1.6 | 3.2 | 0.00 | 0.03 | 0.03 | 99 | 1018.1 |
| 20260510143345 | 23 | 0 | 1.6 | 9.7 | 0.00 | 0.03 | 0.03 | 99 | 1018.0 |
| 20260510142843 | 23 | 26 | 0.0 | 1.6 | 0.00 | 0.03 | 0.03 | 99 | 1018.1 |
| 20260510142339 | 22 | 356 | 1.6 | 1.6 | 0.00 | 0.03 | 0.03 | 99 | 1018.2 |
| 20260510141836 | 22 | 33 | 1.6 | 3.2 | 0.00 | 0.03 | 0.03 | 99 | 1018.0 |
| 20260510141333 | 22 | 24 | 3.2 | 3.2 | 0.00 | 0.03 | 0.03 | 99 | 1018.0 |
| 20260510140830 | 21 | 9 | 1.6 | 1.6 | 0.00 | 0.03 | 0.03 | 99 | 1018.0 |
| 20260510140326 | 21 | 53 | 3.2 | 3.2 | 0.00 | 0.03 | 0.03 | 99 | 1018.0 |
| 20260510135819 | 21 | 74 | 1.6 | 3.2 | 0.00 | 0.03 | 0.03 | 99 | 1017.9 |
| 20260510135315 | 21 | 57 | 1.6 | 1.6 | 0.00 | 0.03 | 0.03 | 99 | 1017.9 |
| 20260510134813 | 20 | 56 | 1.6 | 4.8 | 0.00 | 0.03 | 0.03 | 99 | 1017.8 |
| 20260510134310 | 20 | 21 | 1.6 | 1.6 | 0.00 | 0.03 | 0.03 | 99 | 1018.0 |
| 20260510133806 | 20 | 45 | 1.6 | 3.2 | 0.00 | 0.03 | 0.03 | 99 | 1017.8 |
| 20260510133302 | 20 | 57 | 1.6 | 3.2 | 0.00 | 0.03 | 0.03 | 99 | 1017.8 |
| 20260510132757 | 20 | 15 | 0.0 | 1.6 | 0.00 | 0.03 | 0.03 | 99 | 1017.9 |
| 20260510132256 | 20 | 21 | 0.0 | 1.6 | 0.00 | 0.03 | 0.03 | 99 | 1017.8 |
| 20260510131752 | 20 | 48 | 3.2 | 3.2 | 0.00 | 0.03 | 0.03 | 99 | 1017.9 |
| 20260510131251 | 20 | 12 | 0.0 | 0.0 | 0.00 | 0.03 | 0.03 | 99 | 1017.9 |
| 20260510130746 | 20 | 10 | 0.0 | 1.6 | 0.00 | 0.03 | 0.03 | 99 | 1017.9 |
| 20260510130244 | 20 | 357 | 0.0 | 3.2 | 0.00 | 0.03 | 0.03 | 99 | 1017.6 |
| 20260510125740 | 20 | 16 | 0.0 | 1.6 | 0.00 | 0.03 | 0.03 | 99 | 1017.6 |
| 20260510125236 | 20 | 6 | 0.0 | 0.0 | 0.00 | 0.03 | 0.03 | 99 | 1017.6 |
| 20260510124733 | 20 | 11 | 0.0 | 1.6 | 0.00 | 0.03 | 0.03 | 99 | 1017.5 |
| 20260510124231 | 19 | 16 | 1.6 | 1.6 | 0.00 | 0.03 | 0.03 | 99 | 1017.4 |
| 20260510123725 | 19 | 25 | 4.8 | 4.8 | 0.00 | 0.03 | 0.03 | 99 | 1017.4 |
| 20260510123222 | 19 | 34 | 1.6 | 1.6 | 0.00 | 0.03 | 0.03 | 99 | 1017.2 |
| 20260510122718 | 19 | 6 | 0.0 | 1.6 | 0.00 | 0.03 | 0.03 | 99 | 1017.2 |
| 20260510122215 | 19 | 31 | 0.0 | 1.6 | 0.00 | 0.03 | 0.03 | 99 | 1017.0 |
| 20260510121711 | 19 | 9 | 0.0 | 0.0 | 0.00 | 0.03 | 0.03 | 99 | 1016.8 |
| 20260510121209 | 18 | 10 | 1.6 | 1.6 | 0.00 | 0.03 | 0.03 | 99 | 1016.8 |
| 20260510120705 | 18 | 353 | 1.6 | 1.6 | 0.00 | 0.03 | 0.03 | 99 | 1016.7 |
| 20260510120202 | 18 | 357 | 1.6 | 1.6 | 0.00 | 0.03 | 0.03 | 99 | 1016.6 |
| 20260510115657 | 18 | 14 | 0.0 | 0.0 | 0.00 | 0.03 | 0.03 | 99 | 1016.6 |
| 20260510115156 | 18 | 39 | 0.0 | 3.2 | 0.00 | 0.03 | 0.03 | 99 | 1016.3 |
| 20260510114651 | 18 | 17 | 0.0 | 1.6 | 0.00 | 0.03 | 0.03 | 99 | 1016.4 |
| 20260510114148 | 18 | 6 | 0.0 | 1.6 | 0.00 | 0.03 | 0.03 | 99 | 1016.3 |
| 20260510113643 | 18 | 8 | 0.0 | 0.0 | 0.00 | 0.03 | 0.03 | 99 | 1016.4 |
| 20260510113141 | 18 | 9 | 0.0 | 0.0 | 0.00 | 0.03 | 0.03 | 99 | 1016.2 |
| 20260510112637 | 18 | 11 | 0.0 | 0.0 | 0.00 | 0.03 | 0.03 | 99 | 1016.3 |
| 20260510112134 | 18 | 8 | 0.0 | 1.6 | 0.00 | 0.03 | 0.03 | 99 | 1016.1 |
| 20260510111630 | 18 | 12 | 0.0 | 1.6 | 0.00 | 0.03 | 0.03 | 99 | 1015.9 |
| 20260510111126 | 18 | 14 | 1.6 | 1.6 | 0.00 | 0.03 | 0.03 | 99 | 1016.1 |
| 20260510110622 | 18 | 36 | 1.6 | 1.6 | 0.00 | 0.03 | 0.03 | 99 | 1015.9 |
| 20260510110119 | 18 | 16 | 0.0 | 1.6 | 0.00 | 0.03 | 0.03 | 99 | 1015.8 |
| 20260510105615 | 18 | 53 | 1.6 | 1.6 | 0.00 | 0.03 | 0.03 | 99 | 1015.9 |
| 20260510105109 | 18 | 7 | 0.0 | 0.0 | 0.00 | 0.03 | 0.03 | 99 | 1015.9 |
| 20260510104606 | 18 | 11 | 0.0 | 0.0 | 0.00 | 0.03 | 0.03 | 99 | 1015.6 |
| 20260510104103 | 18 | 5 | 0.0 | 0.0 | 0.00 | 0.03 | 0.03 | 99 | 1015.7 |
| 20260510103600 | 18 | 6 | 0.0 | 0.0 | 0.00 | 0.03 | 0.03 | 99 | 1015.6 |
| 20260510103056 | 18 | 4 | 0.0 | 0.0 | 0.00 | 0.03 | 0.03 | 99 | 1015.4 |
| 20260510102551 | 18 | 6 | 0.0 | 0.0 | 0.00 | 0.03 | 0.03 | 99 | 1015.3 |
| 20260510102047 | 18 | 6 | 0.0 | 0.0 | 0.00 | 0.03 | 0.03 | 99 | 1015.4 |
| 20260510101545 | 18 | 6 | 0.0 | 0.0 | 0.00 | 0.03 | 0.03 | 99 | 1015.5 |
| 20260510101044 | 18 | 6 | 0.0 | 0.0 | 0.00 | 0.03 | 0.03 | 99 | 1015.4 |
| 20260510100539 | 18 | 15 | 0.0 | 0.0 | 0.00 | 0.03 | 0.03 | 99 | 1015.3 |
| 20260510100037 | 18 | 22 | 0.0 | 1.6 | 0.00 | 0.03 | 0.03 | 99 | 1015.1 |
| 20260510095533 | 18 | 19 | 0.0 | 1.6 | 0.18 | 0.03 | 0.03 | 99 | 1015.2 |
| 20260510095032 | 18 | 25 | 1.6 | 3.2 | 0.18 | 0.03 | 0.03 | 99 | 1015.2 |
| 20260510094527 | 18 | 32 | 1.6 | 1.6 | 0.00 | 0.00 | 0.00 | 99 | 1015.0 |
| 20260510094023 | 18 | 65 | 3.2 | 3.2 | 0.00 | 0.00 | 0.00 | 99 | 1015.0 |
| 20260510093518 | 18 | 75 | 1.6 | 3.2 | 0.00 | 0.00 | 0.00 | 99 | 1014.9 |
| 20260510093016 | 18 | 22 | 1.6 | 1.6 | 0.00 | 0.00 | 0.00 | 99 | 1014.8 |
| 20260510092513 | 18 | 22 | 1.6 | 1.6 | 0.00 | 0.00 | 0.00 | 99 | 1014.6 |
| 20260510092012 | 18 | 356 | 0.0 | 0.0 | 0.00 | 0.00 | 0.00 | 99 | 1014.7 |
| 20260510091509 | 18 | 356 | 0.0 | 0.0 | 0.00 | 0.00 | 0.00 | 99 | 1014.6 |
| 20260510091005 | 18 | 7 | 0.0 | 1.6 | 0.00 | 0.00 | 0.00 | 99 | 1014.7 |
| 20260510090503 | 18 | 1 | 0.0 | 1.6 | 0.00 | 0.00 | 0.00 | 99 | 1014.6 |
| 20260510085957 | 18 | 0 | 0.0 | 0.0 | 0.00 | 0.00 | 0.00 | 99 | 1014.7 |
| 20260510085453 | 18 | 0 | 0.0 | 0.0 | 0.00 | 0.00 | 0.00 | 99 | 1014.7 |
| 20260510084949 | 18 | 0 | 0.0 | 0.0 | 0.00 | 0.00 | 0.00 | 99 | 1014.5 |
| 20260510084446 | 19 | 357 | 0.0 | 3.2 | 0.00 | 0.00 | 0.00 | 99 | 1014.7 |
| 20260510083942 | 19 | 356 | 0.0 | 0.0 | 0.00 | 0.00 | 0.00 | 99 | 1014.5 |
| 20260510083439 | 19 | 0 | 0.0 | 0.0 | 0.00 | 0.00 | 0.00 | 99 | 1014.4 |
| 20260510082934 | 18 | 358 | 0.0 | 0.0 | 0.00 | 0.00 | 0.00 | 99 | 1014.5 |
| 20260510082433 | 18 | 346 | 0.0 | 3.2 | 0.00 | 0.00 | 0.00 | 99 | 1014.5 |
| 20260510081931 | 18 | 345 | 1.6 | 1.6 | 0.00 | 0.00 | 0.00 | 99 | 1014.3 |
| 20260510081427 | 18 | 354 | 0.0 | 0.0 | 0.00 | 0.00 | 0.00 | 99 | 1014.1 |
| 20260510080924 | 18 | 352 | 1.6 | 1.6 | 0.00 | 0.00 | 0.00 | 99 | 1014.2 |
| 20260510080423 | 18 | 340 | 1.6 | 3.2 | 0.00 | 0.00 | 0.00 | 99 | 1014.0 |
| 20260510075920 | 19 | 5 | 0.0 | 0.0 | 0.00 | 0.00 | 0.00 | 99 | 1013.9 |
| 20260510075418 | 19 | 25 | 1.6 | 1.6 | 0.00 | 0.00 | 0.00 | 99 | 1013.8 |
| 20260510074914 | 19 | 30 | 1.6 | 1.6 | 0.00 | 0.00 | 0.00 | 99 | 1013.9 |
| 20260510074412 | 19 | 6 | 0.0 | 1.6 | 0.00 | 0.00 | 0.00 | 99 | 1013.9 |
| 20260510073908 | 19 | 5 | 0.0 | 0.0 | 0.00 | 0.00 | 0.00 | 99 | 1013.9 |
| 20260510073403 | 19 | 14 | 0.0 | 1.6 | 0.00 | 0.00 | 0.00 | 99 | 1013.9 |
| 20260510072900 | 19 | 3 | 0.0 | 3.2 | 0.00 | 0.00 | 0.00 | 99 | 1014.0 |
| 20260510072357 | 19 | 88 | 4.8 | 4.8 | 0.00 | 0.00 | 0.00 | 99 | 1013.7 |
| 20260510071852 | 19 | 13 | 0.0 | 1.6 | 0.00 | 0.00 | 0.00 | 99 | 1013.8 |
| 20260510071349 | 19 | 22 | 1.6 | 1.6 | 0.00 | 0.00 | 0.00 | 99 | 1013.9 |
| 20260510070848 | 19 | 1 | 0.0 | 0.0 | 0.00 | 0.00 | 0.00 | 99 | 1013.8 |
| 20260510070345 | 19 | 4 | 0.0 | 3.2 | 0.00 | 0.00 | 0.00 | 99 | 1013.7 |
| 20260510065844 | 19 | 56 | 1.6 | 1.6 | 0.00 | 0.00 | 0.00 | 99 | 1013.7 |
| 20260510065341 | 19 | 23 | 0.0 | 3.2 | 0.00 | 0.00 | 0.00 | 99 | 1013.7 |
| 20260510064838 | 19 | 95 | 4.8 | 4.8 | 0.00 | 0.00 | 0.00 | 99 | 1013.8 |
| 20260510064336 | 19 | 57 | 1.6 | 4.8 | 0.00 | 0.00 | 0.00 | 99 | 1013.7 |
| 20260510063832 | 19 | 111 | 3.2 | 4.8 | 0.00 | 0.00 | 0.00 | 99 | 1013.7 |
| 20260510063329 | 19 | 114 | 6.4 | 8.0 | 0.00 | 0.00 | 0.00 | 99 | 1013.6 |
| 20260510062825 | 19 | 110 | 4.8 | 4.8 | 0.00 | 0.00 | 0.00 | 99 | 1014.0 |
| 20260510062321 | 19 | 26 | 1.6 | 3.2 | 0.00 | 0.00 | 0.00 | 99 | 1014.1 |
| 20260510061816 | 19 | 19 | 0.0 | 1.6 | 0.00 | 0.00 | 0.00 | 99 | 1014.1 |
| 20260510061314 | 19 | 25 | 1.6 | 1.6 | 0.00 | 0.00 | 0.00 | 99 | 1014.0 |
| 20260510060809 | 19 | 24 | 0.0 | 1.6 | 0.00 | 0.00 | 0.00 | 99 | 1014.5 |
| 20260510060307 | 19 | 15 | 0.0 | 1.6 | 0.00 | 0.00 | 0.00 | 99 | 1014.3 |
| 20260510055803 | 19 | 2 | 0.0 | 0.0 | 0.00 | 0.00 | 0.00 | 99 | 1014.6 |
| 20260510055306 | 19 | 2 | 0.0 | 0.0 | 0.00 | 0.00 | 0.00 | 99 | 1014.5 |
| 20260510054801 | 19 | 18 | 1.6 | 1.6 | 0.00 | 0.00 | 0.00 | 99 | 1014.5 |
| 20260510054257 | 19 | 12 | 1.6 | 1.6 | 0.00 | 0.00 | 0.00 | 99 | 1014.5 |
| 20260510053752 | 18 | 359 | 0.0 | 0.0 | 0.00 | 0.00 | 0.00 | 99 | 1014.6 |
| 20260510053248 | 19 | 354 | 0.0 | 1.6 | 0.00 | 0.00 | 0.00 | 99 | 1014.7 |
| 20260510052744 | 19 | 355 | 0.0 | 0.0 | 0.00 | 0.00 | 0.00 | 99 | 1014.7 |
| 20260510052240 | 19 | 356 | 0.0 | 1.6 | 0.00 | 0.00 | 0.00 | 99 | 1014.7 |
| 20260510051736 | 19 | 348 | 0.0 | 0.0 | 0.00 | 0.00 | 0.00 | 99 | 1014.8 |
| 20260510051233 | 19 | 348 | 0.0 | 0.0 | 0.00 | 0.00 | 0.00 | 99 | 1014.8 |
| 20260510050730 | 20 | 350 | 0.0 | 0.0 | 0.00 | 0.00 | 0.00 | 99 | 1014.7 |
| 20260510050227 | 20 | 353 | 0.0 | 0.0 | 0.00 | 0.00 | 0.00 | 99 | 1014.9 |
| 20260510045724 | 20 | 351 | 0.0 | 0.0 | 0.00 | 1.50 | 1.50 | 99 | 1014.5 |
| 20260510045221 | 20 | 344 | 0.0 | 1.6 | 0.00 | 1.50 | 1.50 | 99 | 1014.7 |
| 20260510044717 | 20 | 348 | 0.0 | 0.0 | 0.00 | 1.50 | 1.50 | 99 | 1014.5 |
| 20260510044215 | 20 | 352 | 0.0 | 1.6 | 0.00 | 1.50 | 1.50 | 99 | 1014.6 |
| 20260510043709 | 20 | 48 | 3.2 | 3.2 | 0.00 | 1.50 | 1.50 | 99 | 1014.2 |
| 20260510043207 | 20 | 67 | 4.8 | 8.0 | 0.00 | 1.50 | 1.50 | 99 | 1014.2 |
| 20260510042704 | 20 | 4 | 0.0 | 1.6 | 0.00 | 1.50 | 1.50 | 99 | 1014.7 |
| 20260510042200 | 20 | 10 | 1.6 | 1.6 | 0.00 | 1.50 | 1.50 | 99 | 1014.9 |
| 20260510041657 | 20 | 28 | 1.6 | 1.6 | 0.00 | 1.50 | 1.50 | 99 | 1015.1 |
| 20260510041154 | 20 | 358 | 0.0 | 0.0 | 0.00 | 1.50 | 1.50 | 99 | 1015.0 |
| 20260510040651 | 20 | 2 | 0.0 | 0.0 | 0.00 | 1.50 | 1.50 | 99 | 1015.1 |
| 20260510040148 | 20 | 0 | 0.0 | 0.0 | 0.00 | 1.50 | 1.50 | 99 | 1015.1 |
| 20260510035643 | 20 | 0 | 0.0 | 0.0 | 0.00 | 1.50 | 1.50 | 99 | 1015.2 |
| 20260510035139 | 20 | 19 | 1.6 | 1.6 | 0.00 | 1.50 | 1.50 | 99 | 1015.1 |
| 20260510034636 | 20 | 11 | 0.0 | 0.0 | 0.00 | 1.50 | 1.50 | 99 | 1015.3 |
| 20260510034133 | 20 | 8 | 0.0 | 1.6 | 0.00 | 1.50 | 1.50 | 99 | 1015.2 |
| 20260510033629 | 20 | 354 | 0.0 | 0.0 | 0.00 | 1.50 | 1.50 | 99 | 1015.2 |
| 20260510033127 | 20 | 356 | 0.0 | 0.0 | 0.00 | 1.50 | 1.50 | 99 | 1015.3 |
| 20260510032623 | 20 | 8 | 0.0 | 0.0 | 0.00 | 1.50 | 1.50 | 99 | 1015.1 |
| 20260510032119 | 20 | 27 | 1.6 | 1.6 | 0.00 | 1.50 | 1.50 | 99 | 1015.1 |
| 20260510031614 | 20 | 46 | 1.6 | 3.2 | 0.00 | 1.50 | 1.50 | 99 | 1015.0 |
| 20260510031111 | 20 | 20 | 0.0 | 1.6 | 0.00 | 1.50 | 1.50 | 99 | 1015.1 |
| 20260510030605 | 20 | 351 | 0.0 | 0.0 | 0.00 | 1.50 | 1.50 | 99 | 1014.9 |
| 20260510030103 | 20 | 355 | 0.0 | 0.0 | 0.00 | 1.50 | 1.50 | 99 | 1014.9 |
| 20260510025600 | 20 | 348 | 0.0 | 1.6 | 0.13 | 1.50 | 1.50 | 99 | 1014.7 |
| 20260510025058 | 20 | 333 | 1.6 | 3.2 | 0.13 | 1.50 | 1.50 | 99 | 1014.7 |
| 20260510024554 | 20 | 341 | 0.0 | 1.6 | 0.00 | 1.47 | 1.47 | 99 | 1014.7 |
| 20260510024050 | 20 | 0 | 0.0 | 0.0 | 0.00 | 1.47 | 1.47 | 99 | 1014.4 |
| 20260510023547 | 20 | 3 | 0.0 | 0.0 | 0.00 | 1.47 | 1.47 | 99 | 1014.4 |
| 20260510023044 | 20 | 1 | 0.0 | 0.0 | 0.00 | 1.47 | 1.47 | 99 | 1014.3 |
| 20260510022543 | 20 | 358 | 0.0 | 0.0 | 0.00 | 1.47 | 1.47 | 99 | 1014.6 |
| 20260510022038 | 20 | 1 | 0.0 | 1.6 | 0.00 | 1.47 | 1.47 | 99 | 1014.3 |
| 20260510021535 | 20 | 15 | 1.6 | 4.8 | 0.00 | 1.47 | 1.47 | 99 | 1014.4 |
| 20260510021033 | 20 | 356 | 0.0 | 1.6 | 0.00 | 1.47 | 1.47 | 99 | 1014.6 |
| 20260510020526 | 20 | 356 | 0.0 | 0.0 | 0.00 | 1.47 | 1.47 | 99 | 1014.7 |
| 20260510020022 | 20 | 357 | 0.0 | 0.0 | 0.00 | 1.47 | 1.47 | 99 | 1014.6 |
| 20260510015518 | 20 | 33 | 1.6 | 4.8 | 0.00 | 1.47 | 1.47 | 99 | 1014.6 |
| 20260510015014 | 20 | 67 | 4.8 | 4.8 | 0.00 | 1.47 | 1.47 | 99 | 1014.3 |
| 20260510014511 | 20 | 83 | 3.2 | 3.2 | 0.00 | 1.47 | 1.47 | 99 | 1014.3 |
| 20260510014008 | 20 | 86 | 3.2 | 4.8 | 0.00 | 1.47 | 1.47 | 99 | 1014.2 |
| 20260510013503 | 20 | 91 | 3.2 | 4.8 | 0.00 | 1.47 | 1.47 | 99 | 1014.5 |
| 20260510012959 | 20 | 97 | 3.2 | 3.2 | 0.00 | 1.47 | 1.47 | 99 | 1014.6 |
| 20260510012453 | 20 | 119 | 4.8 | 4.8 | 0.00 | 1.47 | 1.47 | 99 | 1014.6 |
| 20260510011948 | 20 | 113 | 4.8 | 4.8 | 0.00 | 1.47 | 1.47 | 99 | 1014.6 |
| 20260510011443 | 20 | 119 | 3.2 | 3.2 | 0.00 | 1.47 | 1.47 | 99 | 1014.6 |
| 20260510010940 | 20 | 57 | 3.2 | 3.2 | 0.00 | 1.47 | 1.47 | 99 | 1014.9 |
| 20260510010437 | 20 | 47 | 3.2 | 3.2 | 0.00 | 1.47 | 1.47 | 99 | 1014.8 |
| 20260510005934 | 20 | 30 | 1.6 | 1.6 | 0.18 | 1.47 | 1.47 | 99 | 1014.7 |
| 20260510005430 | 20 | 26 | 0.0 | 1.6 | 0.18 | 1.47 | 1.47 | 99 | 1014.8 |
| 20260510004927 | 20 | 6 | 1.6 | 1.6 | 0.00 | 1.45 | 1.45 | 99 | 1014.7 |
| 20260510004424 | 20 | 344 | 0.0 | 3.2 | 0.00 | 1.45 | 1.45 | 99 | 1015.0 |
| 20260510003923 | 20 | 357 | 0.0 | 0.0 | 0.00 | 1.45 | 1.45 | 99 | 1014.6 |
| 20260510003419 | 20 | 350 | 1.6 | 1.6 | 0.00 | 1.45 | 1.45 | 99 | 1014.8 |
| 20260510002918 | 20 | 345 | 0.0 | 3.2 | 0.00 | 1.45 | 1.45 | 99 | 1014.5 |
| 20260510002416 | 20 | 329 | 1.6 | 8.0 | 0.00 | 1.45 | 1.45 | 99 | 1014.2 |
| 20260510001912 | 20 | 4 | 1.6 | 3.2 | 0.00 | 1.45 | 1.45 | 99 | 1013.5 |
| 20260510001410 | 20 | 18 | 1.6 | 3.2 | 0.00 | 1.45 | 1.45 | 99 | 1013.5 |
| 20260510000906 | 20 | 16 | 0.0 | 1.6 | 0.00 | 1.45 | 1.45 | 99 | 1013.3 |
| 20260510000404 | 20 | 353 | 0.0 | 3.2 | 0.00 | 1.45 | 1.45 | 99 | 1013.7 |
| 20260509235859 | 20 | 318 | 6.4 | 12.9 | 0.00 | 1.45 | 1.45 | 99 | 1013.8 |
| 20260509235356 | 20 | 12 | 1.6 | 12.9 | 0.00 | 1.45 | 1.45 | 99 | 1013.1 |
| 20260509234852 | 20 | 130 | 6.4 | 16.1 | 0.00 | 1.45 | 1.45 | 99 | 1012.9 |
| 20260509234350 | 20 | 135 | 11.3 | 20.9 | 0.00 | 1.45 | 1.45 | 99 | 1012.4 |
| 20260509233848 | 20 | 144 | 12.9 | 17.7 | 0.13 | 1.45 | 1.45 | 99 | 1012.6 |
| 20260509233345 | 20 | 114 | 11.3 | 16.1 | 0.13 | 1.45 | 1.45 | 99 | 1012.9 |
| 20260509232840 | 20 | 135 | 9.7 | 11.3 | 0.00 | 1.42 | 1.42 | 99 | 1013.1 |
| 20260509232339 | 21 | 122 | 8.0 | 9.7 | 0.00 | 1.42 | 1.42 | 99 | 1013.2 |
| 20260509231834 | 21 | 100 | 3.2 | 4.8 | 0.00 | 1.42 | 1.42 | 99 | 1013.6 |
| 20260509231332 | 21 | 121 | 3.2 | 4.8 | 0.18 | 1.42 | 1.42 | 99 | 1013.5 |
| 20260509230829 | 21 | 65 | 1.6 | 3.2 | 0.18 | 1.42 | 1.42 | 99 | 1013.5 |
| 20260509230326 | 21 | 101 | 3.2 | 4.8 | 0.00 | 1.40 | 1.40 | 99 | 1013.5 |
| 20260509225821 | 21 | 53 | 1.6 | 3.2 | 0.00 | 1.40 | 1.40 | 99 | 1013.9 |
| 20260509225318 | 21 | 6 | 0.0 | 1.6 | 0.00 | 1.40 | 1.40 | 99 | 1013.9 |
| 20260509224814 | 21 | 30 | 0.0 | 1.6 | 0.00 | 1.40 | 1.40 | 99 | 1013.8 |
| 20260509224311 | 21 | 24 | 1.6 | 3.2 | 0.00 | 1.40 | 1.40 | 99 | 1014.0 |
| 20260509223807 | 21 | 356 | 0.0 | 0.0 | 0.00 | 1.40 | 1.40 | 99 | 1013.9 |
| 20260509223304 | 21 | 356 | 0.0 | 0.0 | 0.18 | 1.40 | 1.40 | 99 | 1013.9 |
| 20260509222801 | 21 | 356 | 0.0 | 0.0 | 0.18 | 1.40 | 1.40 | 99 | 1013.8 |
| 20260509222256 | 21 | 53 | 1.6 | 3.2 | 0.00 | 1.37 | 1.37 | 98 | 1013.6 |
| 20260509221753 | 21 | 10 | 0.0 | 0.0 | 0.00 | 1.37 | 1.37 | 98 | 1013.6 |
| 20260509221249 | 21 | 1 | 0.0 | 0.0 | 0.00 | 1.37 | 1.37 | 98 | 1013.6 |
| 20260509220745 | 21 | 349 | 0.0 | 0.0 | 0.00 | 1.37 | 1.37 | 98 | 1013.2 |
| 20260509220242 | 21 | 349 | 0.0 | 0.0 | 0.00 | 1.37 | 1.37 | 98 | 1013.3 |
| 20260509215737 | 21 | 349 | 0.0 | 1.6 | 0.13 | 1.37 | 1.37 | 98 | 1013.6 |
| 20260509215234 | 21 | 0 | 0.0 | 0.0 | 0.13 | 1.37 | 1.37 | 98 | 1013.6 |
| 20260509214731 | 21 | 358 | 1.6 | 3.2 | 0.00 | 1.35 | 1.35 | 97 | 1013.9 |
| 20260509214228 | 21 | 350 | 1.6 | 3.2 | 0.00 | 1.35 | 1.35 | 97 | 1013.5 |
| 20260509213725 | 21 | 31 | 1.6 | 1.6 | 0.00 | 1.35 | 1.35 | 97 | 1013.3 |
| 20260509213220 | 21 | 9 | 0.0 | 1.6 | 0.00 | 1.35 | 1.35 | 97 | 1013.3 |
| 20260509212718 | 21 | 155 | 6.4 | 8.0 | 0.00 | 1.35 | 1.35 | 97 | 1012.9 |
| 20260509212215 | 21 | 64 | 3.2 | 3.2 | 0.00 | 1.35 | 1.35 | 96 | 1013.2 |
| 20260509211711 | 21 | 138 | 4.8 | 8.0 | 0.00 | 1.35 | 1.35 | 96 | 1013.2 |
| 20260509211208 | 21 | 118 | 3.2 | 4.8 | 0.00 | 1.35 | 1.35 | 94 | 1013.4 |
| 20260509210704 | 21 | 68 | 1.6 | 3.2 | 0.00 | 1.35 | 1.35 | 95 | 1013.6 |
| 20260509210202 | 22 | 84 | 4.8 | 4.8 | 0.00 | 1.35 | 1.35 | 95 | 1013.1 |
| 20260509205702 | 22 | 352 | 0.0 | 3.2 | 0.00 | 1.35 | 1.35 | 96 | 1013.8 |
| 20260509205201 | 22 | 349 | 0.0 | 1.6 | 0.00 | 1.35 | 1.35 | 96 | 1013.6 |
| 20260509204657 | 21 | 349 | 1.6 | 1.6 | 0.00 | 1.35 | 1.35 | 96 | 1013.6 |
| 20260509204154 | 21 | 342 | 1.6 | 1.6 | 0.00 | 1.35 | 1.35 | 96 | 1013.7 |
| 20260509203650 | 21 | 346 | 1.6 | 3.2 | 0.00 | 1.35 | 1.35 | 96 | 1013.8 |
| 20260509203148 | 21 | 349 | 1.6 | 1.6 | 0.00 | 1.35 | 1.35 | 95 | 1013.6 |
| 20260509202643 | 21 | 346 | 1.6 | 3.2 | 0.00 | 1.35 | 1.35 | 95 | 1013.3 |
| 20260509202138 | 22 | 348 | 1.6 | 3.2 | 0.00 | 1.35 | 1.35 | 94 | 1013.0 |
| 20260509201634 | 22 | 329 | 6.4 | 8.0 | 0.00 | 1.35 | 1.35 | 93 | 1013.2 |
| 20260509201132 | 22 | 357 | 0.0 | 4.8 | 0.00 | 1.35 | 1.35 | 93 | 1013.2 |
| 20260509200627 | 22 | 15 | 3.2 | 8.0 | 0.00 | 1.35 | 1.35 | 93 | 1012.2 |
| 20260509200123 | 22 | 346 | 0.0 | 1.6 | 0.00 | 1.35 | 1.35 | 94 | 1012.2 |
| 20260509195619 | 21 | 41 | 1.6 | 4.8 | 0.00 | 1.35 | 1.35 | 94 | 1011.9 |
| 20260509195114 | 21 | 89 | 3.2 | 11.3 | 0.00 | 1.35 | 1.35 | 94 | 1011.6 |
| 20260509194613 | 21 | 124 | 9.7 | 12.9 | 0.00 | 1.35 | 1.35 | 93 | 1011.0 |
| 20260509194111 | 21 | 132 | 6.4 | 11.3 | 0.00 | 1.35 | 1.35 | 92 | 1011.3 |
| 20260509193607 | 21 | 26 | 0.0 | 3.2 | 0.00 | 1.35 | 1.35 | 92 | 1011.7 |
| 20260509193103 | 22 | 126 | 6.4 | 9.7 | 0.00 | 1.35 | 1.35 | 92 | 1011.3 |
| 20260509192600 | 22 | 356 | 0.0 | 3.2 | 0.00 | 1.35 | 1.35 | 92 | 1011.6 |
| 20260509192054 | 22 | 155 | 4.8 | 8.0 | 0.00 | 1.35 | 1.35 | 92 | 1011.7 |
| 20260509191549 | 22 | 240 | 1.6 | 4.8 | 0.00 | 1.35 | 1.35 | 91 | 1011.5 |
| 20260509191045 | 22 | 127 | 3.2 | 4.8 | 0.00 | 1.35 | 1.35 | 92 | 1011.7 |